Time;durP1;ratioP1;P1;durP2;ratioP2;P2;SDS_P1;SDS_P2;PMS_P1;PMS_P2;Temp;Humidity;BMP_temperature;BMP_pressure;BME280_temperature;BME280_humidity;BME280_pressure;Samples;Min_cycle;Max_cycle;Signal;HPM_P1;HPM_P2
2023/12/14 00:00:42;;;;;;;1.83;1.40;;;5.20;99.90;;;;;;4993737;28;20231;-70
2023/12/14 00:03:08;;;;;;;1.65;1.15;;;5.10;99.90;;;;;;4993737;28;20219;-70
2023/12/14 00:05:36;;;;;;;1.23;1.10;;;5.10;99.90;;;;;;4993803;28;20234;-70
2023/12/14 00:08:02;;;;;;;1.15;1.05;;;5.10;99.90;;;;;;4993510;28;20262;-71
2023/12/14 00:10:29;;;;;;;1.10;1.00;;;5.10;99.90;;;;;;4993349;28;20219;-70
2023/12/14 00:12:57;;;;;;;1.10;0.90;;;5.00;99.90;;;;;;4993467;28;20207;-70
2023/12/14 04:31:54;;;;;;;1.50;1.40;;;5.70;99.90;;;;;;5563546;22;20240;-95
2023/12/14 04:34:36;;;;;;;1.75;1.65;;;5.70;99.90;;;;;;5016099;28;20183;-96
2023/12/14 04:37:03;;;;;;;2.72;2.38;;;5.80;99.90;;;;;;5019487;28;20226;-96
2023/12/14 04:39:30;;;;;;;2.95;1.50;;;5.70;99.90;;;;;;5028798;22;20230;-70
2023/12/14 04:41:57;;;;;;;2.78;2.15;;;5.80;99.90;;;;;;5012519;28;20230;-71
2023/12/14 04:44:23;;;;;;;2.38;1.90;;;5.70;99.90;;;;;;5012777;28;20217;-71
2023/12/14 04:46:51;;;;;;;3.20;2.47;;;5.80;99.90;;;;;;5012211;28;20223;-70
2023/12/14 04:49:19;;;;;;;1.92;1.70;;;5.70;99.90;;;;;;5011574;28;20225;-71
2023/12/14 04:51:46;;;;;;;1.75;1.42;;;5.70;99.90;;;;;;5011809;28;20222;-71
2023/12/14 04:54:13;;;;;;;2.97;2.17;;;5.70;99.90;;;;;;5011897;28;20211;-71
2023/12/14 04:56:41;;;;;;;1.85;1.55;;;5.70;99.90;;;;;;5009150;28;20202;-71
2023/12/14 04:59:08;;;;;;;3.22;2.53;;;5.70;99.90;;;;;;5011675;28;20211;-71
2023/12/14 05:01:34;;;;;;;2.28;1.75;;;5.70;99.90;;;;;;5011664;28;20227;-71
2023/12/14 05:04:03;;;;;;;1.67;1.52;;;5.80;99.90;;;;;;5011954;28;20265;-71
2023/12/14 05:06:32;;;;;;;1.55;1.45;;;5.80;99.90;;;;;;5010998;28;20704;-71
2023/12/14 05:09:01;;;;;;;2.20;2.00;;;5.70;99.90;;;;;;5018421;28;20213;-70
2023/12/14 05:11:28;;;;;;;2.08;1.88;;;5.80;99.90;;;;;;5019510;28;20655;-71
2023/12/14 05:13:54;;;;;;;1.85;1.67;;;5.80;99.90;;;;;;5022307;28;20206;-71
2023/12/14 05:16:22;;;;;;;1.67;1.58;;;5.80;99.90;;;;;;5019873;28;20260;-71
2023/12/14 05:18:49;;;;;;;2.20;1.80;;;5.80;99.90;;;;;;5017656;28;20466;-71
2023/12/14 05:21:19;;;;;;;1.85;1.67;;;5.80;99.90;;;;;;5011123;28;20877;-71
2023/12/14 05:23:46;;;;;;;2.65;2.10;;;5.90;99.90;;;;;;5011632;28;20214;-70
2023/12/14 05:26:12;;;;;;;3.15;2.20;;;5.90;99.90;;;;;;5012422;28;20234;-70
2023/12/14 05:28:39;;;;;;;2.80;2.53;;;5.90;99.90;;;;;;5010769;28;20213;-71
2023/12/14 05:31:06;;;;;;;2.88;2.10;;;5.90;99.90;;;;;;5011667;28;20597;-71
2023/12/14 05:33:33;;;;;;;1.90;1.80;;;5.90;99.90;;;;;;5011661;28;20237;-70
2023/12/14 05:36:00;;;;;;;3.15;2.38;;;5.80;99.90;;;;;;5011705;28;20745;-71
2023/12/14 05:38:28;;;;;;;2.90;2.38;;;5.90;99.90;;;;;;5011410;28;20210;-71
2023/12/14 05:40:55;;;;;;;3.13;2.47;;;5.90;99.90;;;;;;5011547;28;20238;-71
2023/12/14 05:43:22;;;;;;;1.98;1.85;;;5.90;99.90;;;;;;5009916;28;20210;-70
2023/12/14 05:45:49;;;;;;;4.13;2.55;;;5.90;99.90;;;;;;5011551;28;20333;-71
2023/12/14 05:48:16;;;;;;;2.30;2.03;;;5.90;99.90;;;;;;5011101;28;20214;-71
2023/12/14 05:50:43;;;;;;;2.47;2.15;;;5.90;99.90;;;;;;5011664;28;20229;-70
2023/12/14 05:53:10;;;;;;;3.42;3.10;;;5.90;99.90;;;;;;5011807;28;20218;-70
2023/12/14 05:55:39;;;;;;;3.15;2.83;;;5.90;99.90;;;;;;5011394;28;20203;-70
2023/12/14 05:58:07;;;;;;;3.08;1.92;;;5.90;99.90;;;;;;5010976;28;20203;-71
2023/12/14 06:00:34;;;;;;;3.13;2.80;;;5.90;99.90;;;;;;5011400;28;20676;-70
2023/12/14 06:03:01;;;;;;;3.28;2.38;;;5.90;99.90;;;;;;5011625;28;20215;-71
2023/12/14 06:05:28;;;;;;;2.90;2.58;;;6.00;99.90;;;;;;5011146;28;20213;-71
2023/12/14 06:07:54;;;;;;;2.15;1.95;;;5.90;99.90;;;;;;5013655;28;20205;-71
2023/12/14 06:10:21;;;;;;;3.55;2.42;;;6.00;99.90;;;;;;5016584;28;20207;-71
2023/12/14 06:12:49;;;;;;;3.80;2.70;;;6.00;99.90;;;;;;5016990;28;20207;-71
2023/12/14 06:15:16;;;;;;;2.60;2.40;;;6.00;99.90;;;;;;5015024;28;20218;-71
2023/12/14 06:17:43;;;;;;;3.10;2.80;;;6.00;99.90;;;;;;5015078;28;20618;-71
2023/12/14 06:20:10;;;;;;;2.63;2.40;;;6.00;99.90;;;;;;5019536;28;20201;-70
2023/12/14 06:22:37;;;;;;;3.05;2.30;;;6.00;99.90;;;;;;5013465;28;20725;-71
2023/12/14 06:25:05;;;;;;;3.40;2.40;;;6.00;99.90;;;;;;5009670;28;20670;-71
2023/12/14 06:27:31;;;;;;;3.53;2.67;;;6.00;99.90;;;;;;5008309;28;20249;-70
2023/12/14 06:29:59;;;;;;;2.80;2.50;;;6.00;99.90;;;;;;5008652;28;20210;-71
2023/12/14 06:32:26;;;;;;;3.40;2.42;;;6.00;99.90;;;;;;5009799;28;20609;-70
2023/12/14 06:34:53;;;;;;;2.45;2.25;;;6.00;99.90;;;;;;5008886;28;20261;-71
2023/12/14 06:37:20;;;;;;;2.47;2.28;;;6.00;99.90;;;;;;5009492;28;20582;-71
2023/12/14 06:39:47;;;;;;;5.35;3.15;;;6.00;99.90;;;;;;5010508;28;20214;-72
2023/12/14 06:42:13;;;;;;;2.85;2.60;;;6.00;99.90;;;;;;5010900;28;20788;-71
2023/12/14 06:44:40;;;;;;;3.05;2.78;;;6.00;99.90;;;;;;5010798;28;20203;-71
2023/12/14 06:47:08;;;;;;;7.22;2.80;;;6.00;99.90;;;;;;5010548;28;20233;-71
2023/12/14 06:49:35;;;;;;;3.72;2.85;;;6.00;99.90;;;;;;5010340;28;20233;-71
2023/12/14 06:52:02;;;;;;;2.95;2.50;;;6.00;99.90;;;;;;5010799;28;20222;-70
2023/12/14 06:54:28;;;;;;;3.50;2.60;;;5.90;99.90;;;;;;5010899;28;20211;-71
2023/12/14 06:56:55;;;;;;;4.65;2.22;;;6.00;99.90;;;;;;5010461;28;20210;-71
2023/12/14 06:59:21;;;;;;;4.45;2.35;;;5.90;99.90;;;;;;5007732;28;20203;-71
2023/12/14 07:01:48;;;;;;;3.58;2.63;;;5.90;99.90;;;;;;5010827;28;20222;-71
2023/12/14 07:04:16;;;;;;;2.53;2.30;;;5.90;99.90;;;;;;5010589;28;20605;-71
2023/12/14 07:06:43;;;;;;;3.25;2.03;;;5.90;99.90;;;;;;5010243;28;20215;-70
2023/12/14 07:09:09;;;;;;;1.92;1.73;;;5.90;99.90;;;;;;5010375;28;20214;-71
2023/12/14 07:11:36;;;;;;;1.60;1.33;;;5.90;99.90;;;;;;5010330;28;20237;-70
2023/12/14 07:14:03;;;;;;;2.30;2.10;;;5.90;99.90;;;;;;5010709;28;20207;-70
2023/12/14 07:16:29;;;;;;;5.78;3.30;;;5.90;99.90;;;;;;5010296;28;20207;-71
2023/12/14 07:18:56;;;;;;;2.05;1.60;;;5.90;99.90;;;;;;5010043;28;20202;-69
2023/12/14 07:21:24;;;;;;;4.60;2.00;;;6.00;99.90;;;;;;5010532;28;20603;-70
2023/12/14 07:23:51;;;;;;;5.65;1.83;;;6.00;99.90;;;;;;5009914;28;20203;-71
2023/12/14 07:26:18;;;;;;;2.20;2.00;;;6.00;99.90;;;;;;5009955;28;20222;-70
2023/12/14 07:28:44;;;;;;;1.80;1.55;;;6.00;99.90;;;;;;5009909;28;20202;-70
2023/12/14 07:31:11;;;;;;;2.33;1.83;;;6.00;99.90;;;;;;5010249;28;20238;-70
2023/12/14 07:33:38;;;;;;;4.53;2.60;;;6.00;99.90;;;;;;5010132;28;20211;-70
2023/12/14 07:36:05;;;;;;;2.00;1.73;;;6.10;99.90;;;;;;5012116;28;20210;-71
2023/12/14 07:38:33;;;;;;;2.85;2.53;;;6.10;99.90;;;;;;5013642;28;20238;-71
2023/12/14 07:41:00;;;;;;;2.03;1.70;;;6.00;99.90;;;;;;5013734;28;20230;-71
2023/12/14 07:43:27;;;;;;;1.77;1.63;;;6.00;99.90;;;;;;5013868;28;20214;-70
2023/12/14 07:45:54;;;;;;;2.85;2.15;;;6.10;99.90;;;;;;5013716;28;20613;-71
2023/12/14 07:48:20;;;;;;;2.70;2.17;;;6.10;99.90;;;;;;5013223;28;20672;-70
2023/12/14 07:50:48;;;;;;;2.60;2.20;;;6.10;99.90;;;;;;5013673;28;20226;-71
2023/12/14 07:53:15;;;;;;;2.97;1.98;;;6.10;99.90;;;;;;5013902;28;20210;-70
2023/12/14 07:55:43;;;;;;;2.25;1.70;;;6.10;99.90;;;;;;5013097;28;20211;-71
2023/12/14 07:58:09;;;;;;;2.97;1.92;;;6.10;99.90;;;;;;5013109;28;20202;-71
2023/12/14 08:00:36;;;;;;;2.40;2.20;;;6.10;99.90;;;;;;5013404;28;20578;-71
2023/12/14 08:03:03;;;;;;;2.47;1.85;;;6.10;99.90;;;;;;5013522;28;20199;-70
2023/12/14 08:05:29;;;;;;;3.47;2.17;;;6.10;99.90;;;;;;5013585;28;20968;-71
2023/12/14 08:07:56;;;;;;;3.05;2.75;;;6.20;99.90;;;;;;5012982;28;20215;-70
2023/12/14 08:10:23;;;;;;;2.00;1.73;;;6.20;99.90;;;;;;5013189;28;20222;-71
2023/12/14 08:12:52;;;;;;;2.47;1.98;;;6.30;99.90;;;;;;5013240;28;20341;-70
2023/12/14 08:15:18;;;;;;;2.25;2.05;;;6.40;99.90;;;;;;5013441;28;20257;-71
2023/12/14 08:17:45;;;;;;;2.28;2.00;;;6.50;99.90;;;;;;5012836;28;20199;-71
2023/12/14 08:20:13;;;;;;;2.45;2.05;;;6.60;99.90;;;;;;5012958;28;20206;-70
2023/12/14 08:22:44;;;;;;;2.55;1.73;;;6.60;99.90;;;;;;5013066;28;20202;-71
2023/12/14 08:25:12;;;;;;;4.22;3.13;;;6.60;99.90;;;;;;5013302;28;20203;-71
2023/12/14 08:27:38;;;;;;;2.90;2.58;;;6.60;99.90;;;;;;5012619;28;20602;-71
2023/12/14 08:30:08;;;;;;;3.33;2.20;;;6.60;99.90;;;;;;5012546;28;20667;-71
2023/12/14 08:32:35;;;;;;;2.80;2.10;;;6.70;99.90;;;;;;5009569;28;20314;-70
2023/12/14 08:35:02;;;;;;;3.25;2.40;;;6.70;99.90;;;;;;5012079;28;20667;-71
2023/12/14 08:37:28;;;;;;;3.75;2.50;;;6.90;99.90;;;;;;5012781;28;20217;-72
2023/12/14 08:39:55;;;;;;;2.42;2.20;;;7.00;99.90;;;;;;5012240;28;20644;-72
2023/12/14 08:42:22;;;;;;;4.40;2.50;;;7.00;99.90;;;;;;5008893;28;20231;-72
2023/12/14 08:44:49;;;;;;;2.60;2.22;;;7.20;99.90;;;;;;5012531;28;20249;-72
2023/12/14 08:47:18;;;;;;;2.45;2.00;;;7.40;99.90;;;;;;5011725;28;20312;-72
2023/12/14 08:49:44;;;;;;;2.30;1.90;;;7.40;99.90;;;;;;5012161;28;20290;-72
2023/12/14 08:52:11;;;;;;;2.70;2.10;;;7.50;99.90;;;;;;5012666;28;20258;-72
2023/12/14 08:54:38;;;;;;;3.05;2.45;;;7.60;99.90;;;;;;5012253;28;20213;-72
2023/12/14 08:57:05;;;;;;;2.25;2.03;;;7.70;99.90;;;;;;5012332;28;20205;-72
2023/12/14 08:59:32;;;;;;;5.75;2.30;;;7.90;99.90;;;;;;5012003;28;20585;-72
2023/12/14 09:01:59;;;;;;;3.50;2.20;;;7.90;99.90;;;;;;5012106;28;20290;-72
2023/12/14 09:04:27;;;;;;;3.22;2.70;;;7.90;99.90;;;;;;5012076;28;20684;-72
2023/12/14 09:06:54;;;;;;;3.22;2.65;;;7.90;99.90;;;;;;5011845;28;20238;-71
2023/12/14 09:09:21;;;;;;;2.55;2.30;;;7.80;99.90;;;;;;5011616;28;20743;-71
2023/12/14 09:11:47;;;;;;;2.55;2.35;;;7.70;99.90;;;;;;5011808;28;20607;-71
2023/12/14 09:14:14;;;;;;;3.28;2.97;;;7.60;99.90;;;;;;5012324;28;20208;-71
2023/12/14 09:16:41;;;;;;;2.97;2.58;;;7.50;99.90;;;;;;5011387;28;20209;-72
2023/12/14 09:19:08;;;;;;;3.50;2.92;;;7.50;99.90;;;;;;5011564;28;20585;-71
2023/12/14 09:21:36;;;;;;;2.47;2.15;;;7.50;99.90;;;;;;5008839;28;20250;-71
2023/12/14 09:24:03;;;;;;;2.65;2.33;;;7.60;99.90;;;;;;5011316;28;20711;-71
2023/12/14 09:26:30;;;;;;;5.13;2.95;;;7.60;99.90;;;;;;5011929;28;20245;-71
2023/12/14 09:28:56;;;;;;;3.20;2.55;;;7.60;99.90;;;;;;5009473;28;20245;-72
2023/12/14 09:31:23;;;;;;;2.92;2.30;;;7.60;99.90;;;;;;5010233;28;20238;-72
2023/12/14 09:33:50;;;;;;;5.18;3.50;;;7.60;99.90;;;;;;5012230;28;20219;-72
2023/12/14 09:36:18;;;;;;;3.35;2.70;;;7.60;99.90;;;;;;5012342;28;20218;-73
2023/12/14 09:38:47;;;;;;;3.30;3.00;;;7.60;99.90;;;;;;5011328;28;20290;-72
2023/12/14 09:41:14;;;;;;;2.40;2.20;;;7.60;99.90;;;;;;5011564;28;20726;-72
2023/12/14 09:43:41;;;;;;;5.20;3.15;;;7.70;99.90;;;;;;5011320;28;20218;-71
2023/12/14 09:46:09;;;;;;;4.72;3.58;;;7.90;99.90;;;;;;5011309;28;20265;-71
2023/12/14 09:48:36;;;;;;;5.07;3.65;;;8.10;99.90;;;;;;5010848;28;20226;-71
2023/12/14 09:51:04;;;;;;;4.47;3.55;;;8.30;99.90;;;;;;5011021;28;20740;-71
2023/12/14 09:53:31;;;;;;;4.68;3.70;;;8.50;99.90;;;;;;5011222;28;20268;-71
2023/12/14 09:55:59;;;;;;;4.40;3.20;;;8.70;99.90;;;;;;5011242;28;20210;-71
2023/12/14 09:58:26;;;;;;;4.55;3.40;;;8.90;99.90;;;;;;5010363;28;20207;-72
2023/12/14 10:00:53;;;;;;;3.30;2.92;;;9.20;99.90;;;;;;5010745;28;24202;-71
2023/12/14 10:03:21;;;;;;;4.32;3.67;;;9.60;99.90;;;;;;5011418;28;20213;-71
2023/12/14 10:05:48;;;;;;;5.55;3.95;;;9.90;99.90;;;;;;5011015;28;20204;-72
2023/12/14 10:08:16;;;;;;;3.95;3.22;;;10.00;99.90;;;;;;5010599;28;20233;-72
2023/12/14 10:10:43;;;;;;;3.22;2.88;;;10.10;99.90;;;;;;5010744;28;20300;-72
2023/12/14 10:13:12;;;;;;;6.53;4.00;;;10.50;99.90;;;;;;5011617;28;20214;-72
2023/12/14 10:15:42;;;;;;;4.15;3.17;;;11.40;99.90;;;;;;5010790;28;20218;-72
2023/12/14 10:18:10;;;;;;;3.47;2.65;;;11.70;99.90;;;;;;5007665;28;20215;-72
2023/12/14 10:20:37;;;;;;;3.95;2.90;;;11.60;99.90;;;;;;5010693;28;20735;-72
2023/12/14 10:23:04;;;;;;;5.80;3.30;;;11.50;99.90;;;;;;5010453;28;20264;-72
2023/12/14 10:25:31;;;;;;;3.30;2.60;;;11.60;99.90;;;;;;5009085;28;20688;-72
2023/12/14 10:27:59;;;;;;;3.53;2.80;;;11.50;99.90;;;;;;5010337;28;20232;-72
2023/12/14 10:30:30;;;;;;;4.75;3.00;;;11.30;99.90;;;;;;5010421;28;20666;-72
2023/12/14 10:32:57;;;;;;;3.30;2.60;;;10.80;99.90;;;;;;5010772;28;20213;-72
2023/12/14 10:35:24;;;;;;;3.38;2.65;;;10.40;99.90;;;;;;5010855;28;20213;-72
2023/12/14 10:37:52;;;;;;;5.53;2.65;;;10.10;99.90;;;;;;5007351;28;20666;-72
2023/12/14 10:40:20;;;;;;;2.45;2.25;;;9.70;99.90;;;;;;5008996;28;20674;-72
2023/12/14 10:42:48;;;;;;;2.42;2.22;;;9.60;99.90;;;;;;5010196;28;20213;-72
2023/12/14 10:45:18;;;;;;;2.80;2.60;;;9.50;99.90;;;;;;5010660;28;20218;-72
2023/12/14 10:47:47;;;;;;;2.72;2.35;;;9.50;99.90;;;;;;5008023;28;20230;-72
2023/12/14 10:50:17;;;;;;;4.15;2.70;;;9.50;99.90;;;;;;5010352;28;20292;-72
2023/12/14 10:52:46;;;;;;;3.17;2.45;;;9.50;99.90;;;;;;5008925;28;20275;-72
2023/12/14 10:55:22;;;;;;;2.38;2.17;;;9.70;99.90;;;;;;5010524;28;20589;-72
2023/12/14 10:57:48;;;;;;;2.83;2.63;;;9.70;99.90;;;;;;5010139;28;20209;-72
2023/12/14 11:00:18;;;;;;;2.90;2.10;;;9.90;99.90;;;;;;5010039;28;20591;-72
2023/12/14 11:02:47;;;;;;;2.45;2.15;;;10.10;99.90;;;;;;5010506;28;20209;-72
2023/12/14 11:05:19;;;;;;;2.08;1.88;;;10.10;99.90;;;;;;5010817;28;20299;-72
2023/12/14 11:07:52;;;;;;;2.70;2.22;;;10.00;99.90;;;;;;5009904;28;20229;-72
2023/12/14 11:10:25;;;;;;;3.17;2.60;;;10.00;99.90;;;;;;5012654;28;20217;-72
2023/12/14 11:12:58;;;;;;;3.03;2.33;;;10.00;99.90;;;;;;5014129;28;20212;-72
2023/12/14 11:15:25;;;;;;;4.43;2.30;;;10.10;99.90;;;;;;5009047;28;20210;-72
2023/12/14 11:18:29;;;;;;;3.08;2.10;;;10.20;99.90;;;;;;5013698;28;20208;-72
2023/12/14 11:20:58;;;;;;;2.80;2.47;;;10.30;99.90;;;;;;4933909;29;20726;-76
2023/12/14 11:23:34;;;;;;;2.67;1.73;;;10.80;99.90;;;;;;4930430;29;20216;-78
2023/12/14 11:26:04;;;;;;;2.10;1.90;;;11.90;99.90;;;;;;4982951;28;20320;-79
2023/12/14 11:28:32;;;;;;;4.20;2.20;;;12.60;99.90;;;;;;5019943;28;20253;-79
2023/12/14 11:30:59;;;;;;;1.95;1.70;;;12.50;99.90;;;;;;5018656;28;20738;-80
2023/12/14 11:33:28;;;;;;;2.35;2.15;;;12.20;99.90;;;;;;5019312;28;20639;-80
2023/12/14 11:36:00;;;;;;;3.35;1.83;;;11.70;99.90;;;;;;5019078;28;20222;-80
2023/12/14 11:38:31;;;;;;;2.88;1.80;;;11.30;99.90;;;;;;5013675;28;20213;-79
2023/12/14 11:41:00;;;;;;;1.80;1.60;;;11.50;99.90;;;;;;5017880;28;20244;-80
2023/12/14 11:43:39;;;;;;;3.20;1.90;;;11.80;99.90;;;;;;5020475;28;20222;-79
2023/12/14 11:46:06;;;;;;;2.33;1.60;;;12.00;99.90;;;;;;5015597;28;20271;-78
2023/12/14 11:48:33;;;;;;;1.50;1.30;;;11.90;99.90;;;;;;5017442;28;20222;-79
2023/12/14 11:51:01;;;;;;;1.85;1.50;;;11.80;99.90;;;;;;5018600;28;20230;-79
2023/12/14 11:53:28;;;;;;;1.23;1.00;;;11.50;99.90;;;;;;5018081;28;20591;-79
2023/12/14 11:55:54;;;;;;;1.50;0.95;;;11.20;99.90;;;;;;5018220;28;20220;-79
2023/12/14 11:58:21;;;;;;;2.00;1.45;;;10.70;99.90;;;;;;5011325;28;20198;-78
2023/12/14 12:00:48;;;;;;;2.40;1.00;;;10.30;99.90;;;;;;5017695;28;20218;-79
2023/12/14 12:03:16;;;;;;;1.35;1.23;;;9.90;99.90;;;;;;5019038;28;20217;-79
2023/12/14 12:05:44;;;;;;;1.58;1.48;;;9.70;99.90;;;;;;5018729;28;20213;-78
2023/12/14 12:08:14;;;;;;;1.13;1.02;;;9.50;99.90;;;;;;5017779;28;20243;-80
2023/12/14 12:10:41;;;;;;;1.70;1.20;;;9.40;99.90;;;;;;5018632;28;20225;-78
2023/12/14 12:13:12;;;;;;;1.25;1.08;;;9.30;99.90;;;;;;5017700;28;20209;-79
2023/12/14 12:15:39;;;;;;;2.35;1.35;;;9.20;99.90;;;;;;5017785;28;20208;-80
2023/12/14 12:18:07;;;;;;;1.00;0.90;;;9.10;99.90;;;;;;5019796;28;20207;-80
2023/12/14 12:20:34;;;;;;;1.95;1.35;;;9.00;99.90;;;;;;5020160;28;20232;-79
2023/12/14 12:23:01;;;;;;;1.48;1.10;;;9.00;99.90;;;;;;5018603;28;20301;-79
2023/12/14 12:25:29;;;;;;;2.00;1.38;;;9.00;99.90;;;;;;5018264;28;20203;-79
2023/12/14 12:27:56;;;;;;;1.85;1.70;;;8.90;99.90;;;;;;5017693;28;20696;-79
2023/12/14 12:30:23;;;;;;;1.88;1.77;;;8.90;99.90;;;;;;5012001;28;20216;-78
2023/12/14 12:32:51;;;;;;;1.67;1.48;;;8.80;99.90;;;;;;5018421;28;20211;-79
2023/12/14 12:35:18;;;;;;;1.48;1.25;;;8.70;99.90;;;;;;5017389;28;20226;-79
2023/12/14 12:37:44;;;;;;;1.20;1.10;;;8.50;99.90;;;;;;5013665;28;20207;-76
2023/12/14 12:40:12;;;;;;;1.70;1.50;;;8.30;99.90;;;;;;5012420;28;20639;-77
2023/12/14 12:42:40;;;;;;;1.40;1.30;;;8.20;99.90;;;;;;5013407;28;20207;-78
2023/12/14 12:45:08;;;;;;;1.63;1.40;;;8.10;99.90;;;;;;5012912;28;20211;-78
2023/12/14 12:47:34;;;;;;;2.13;1.98;;;8.10;99.90;;;;;;5012857;28;20556;-77
2023/12/14 12:50:01;;;;;;;1.40;1.30;;;8.00;99.90;;;;;;5012203;28;20202;-77
2023/12/14 12:52:29;;;;;;;1.38;1.27;;;7.90;99.90;;;;;;5013267;28;20252;-77
2023/12/14 12:54:56;;;;;;;1.60;1.48;;;8.00;99.90;;;;;;5014706;28;20698;-78
2023/12/14 12:57:22;;;;;;;1.60;1.33;;;7.90;99.90;;;;;;5007178;28;20210;-78
2023/12/14 12:59:50;;;;;;;1.67;1.30;;;7.90;99.90;;;;;;5013880;28;20206;-78
2023/12/14 13:02:18;;;;;;;1.75;1.40;;;7.90;99.90;;;;;;5014082;28;20230;-78
2023/12/14 13:04:44;;;;;;;8.05;2.60;;;7.90;99.90;;;;;;5014502;28;20202;-77
2023/12/14 13:07:12;;;;;;;4.55;2.70;;;7.80;99.90;;;;;;5013063;28;20742;-78
2023/12/14 13:09:38;;;;;;;4.00;2.92;;;7.70;99.90;;;;;;5012898;28;20254;-78
2023/12/14 13:12:05;;;;;;;2.17;1.50;;;7.70;99.90;;;;;;5012980;28;20233;-78
2023/12/14 13:14:32;;;;;;;2.53;1.48;;;7.60;99.90;;;;;;5013270;28;20276;-78
2023/12/14 13:17:00;;;;;;;2.38;1.80;;;7.50;99.90;;;;;;5012863;28;20209;-77
2023/12/14 13:19:28;;;;;;;3.63;1.50;;;7.40;99.90;;;;;;5013346;28;20691;-77
2023/12/14 13:21:56;;;;;;;1.35;1.10;;;7.30;99.90;;;;;;5013289;28;20273;-78
2023/12/14 13:24:24;;;;;;;2.00;1.65;;;7.20;99.90;;;;;;5005689;28;20605;-78
2023/12/14 13:26:50;;;;;;;4.35;1.60;;;7.10;99.90;;;;;;5012872;28;20210;-78
2023/12/14 13:29:17;;;;;;;2.40;1.48;;;7.20;99.90;;;;;;5011807;28;20218;-78
2023/12/14 13:31:44;;;;;;;1.20;1.10;;;7.10;99.90;;;;;;5012876;28;20590;-78
2023/12/14 13:34:12;;;;;;;1.67;1.20;;;7.10;99.90;;;;;;5011545;28;20238;-77
2023/12/14 13:36:39;;;;;;;1.92;1.50;;;7.20;99.90;;;;;;5012485;28;20214;-78
2023/12/14 13:39:06;;;;;;;2.05;1.30;;;7.20;99.90;;;;;;5012449;28;20207;-78
2023/12/14 13:41:34;;;;;;;2.08;1.58;;;7.20;99.90;;;;;;5012889;28;20239;-77
2023/12/14 13:44:01;;;;;;;2.30;1.55;;;7.30;99.90;;;;;;5012232;28;20202;-78
2023/12/14 13:46:28;;;;;;;1.83;1.45;;;7.30;99.90;;;;;;5012751;28;20290;-78
2023/12/14 13:48:55;;;;;;;2.28;1.40;;;7.20;99.90;;;;;;5012292;28;20601;-77
2023/12/14 13:51:23;;;;;;;3.42;2.10;;;7.20;99.90;;;;;;5004681;28;20222;-78
2023/12/14 13:53:49;;;;;;;1.67;1.40;;;7.20;99.90;;;;;;5012624;28;20203;-78
2023/12/14 13:56:16;;;;;;;1.48;1.20;;;7.10;99.90;;;;;;5011653;28;20206;-78
2023/12/14 13:58:43;;;;;;;3.50;2.17;;;7.10;99.90;;;;;;5012274;28;20671;-78
2023/12/14 14:01:09;;;;;;;2.20;1.50;;;7.10;99.90;;;;;;5011480;28;20226;-78
2023/12/14 14:03:37;;;;;;;2.33;1.60;;;7.10;99.90;;;;;;5011620;28;20211;-78
2023/12/14 14:06:05;;;;;;;2.80;2.15;;;7.10;99.90;;;;;;5011676;28;20210;-77
2023/12/14 14:08:33;;;;;;;1.70;1.60;;;7.10;99.90;;;;;;5011330;28;20218;-77
2023/12/14 14:11:00;;;;;;;1.92;1.70;;;7.10;99.90;;;;;;5011468;28;20222;-78
2023/12/14 14:13:27;;;;;;;2.35;2.15;;;7.00;99.90;;;;;;5011721;28;20207;-78
2023/12/14 14:15:54;;;;;;;2.13;1.92;;;7.00;99.90;;;;;;5011663;28;20210;-78
2023/12/14 14:18:21;;;;;;;3.90;2.60;;;7.00;99.90;;;;;;5010635;28;20211;-78
2023/12/14 14:20:48;;;;;;;2.72;2.22;;;7.00;99.90;;;;;;5011519;28;20226;-78
2023/12/14 14:23:15;;;;;;;3.22;2.55;;;7.00;99.90;;;;;;5010905;28;20701;-78
2023/12/14 14:25:44;;;;;;;3.47;2.38;;;7.00;99.90;;;;;;5014503;28;20211;-78
2023/12/14 14:28:10;;;;;;;3.08;2.60;;;7.00;99.90;;;;;;5010879;28;20216;-78
2023/12/14 14:30:37;;;;;;;3.40;2.95;;;6.90;99.90;;;;;;5012633;28;20230;-78
2023/12/14 14:33:04;;;;;;;2.67;2.45;;;6.90;99.90;;;;;;5010788;28;20212;-78
2023/12/14 14:35:33;;;;;;;5.28;3.33;;;6.90;99.90;;;;;;5011097;28;20261;-78
2023/12/14 14:38:01;;;;;;;4.30;3.05;;;6.90;99.90;;;;;;5010486;28;20202;-78
2023/12/14 14:40:27;;;;;;;3.17;2.40;;;6.90;99.90;;;;;;5010433;28;20206;-79
2023/12/14 14:42:55;;;;;;;3.58;1.92;;;6.90;99.90;;;;;;5011142;28;20676;-78
2023/12/14 14:45:22;;;;;;;3.65;2.72;;;6.90;99.90;;;;;;5012781;28;20211;-78
2023/12/14 14:47:49;;;;;;;2.70;2.30;;;6.90;99.90;;;;;;5014911;28;20217;-78
2023/12/14 14:50:15;;;;;;;2.65;2.15;;;6.90;99.90;;;;;;5014096;28;20222;-78
2023/12/14 14:52:42;;;;;;;3.95;2.50;;;6.90;99.90;;;;;;5015065;28;20213;-78
2023/12/14 14:55:09;;;;;;;5.25;2.47;;;6.90;99.90;;;;;;5014497;28;20608;-78
2023/12/14 14:57:36;;;;;;;3.13;2.60;;;6.90;99.90;;;;;;5015588;28;20203;-77
2023/12/14 15:00:05;;;;;;;4.65;2.58;;;6.90;99.90;;;;;;5014506;28;20205;-78
2023/12/14 15:02:32;;;;;;;2.80;2.38;;;6.90;99.90;;;;;;5015908;28;20222;-77
2023/12/14 15:04:59;;;;;;;4.57;2.50;;;6.80;99.90;;;;;;5015070;28;20202;-77
2023/12/14 15:07:28;;;;;;;3.42;2.83;;;6.80;99.90;;;;;;5014063;28;20202;-77
2023/12/14 15:09:55;;;;;;;4.95;2.60;;;6.80;99.90;;;;;;5014123;28;20226;-77
2023/12/14 15:12:21;;;;;;;3.08;2.47;;;6.80;99.90;;;;;;5013644;28;20257;-77
2023/12/14 15:14:48;;;;;;;3.65;2.67;;;6.80;99.90;;;;;;5014700;28;20203;-77
2023/12/14 15:17:18;;;;;;;4.05;2.33;;;6.80;99.90;;;;;;5013829;28;20207;-77
2023/12/14 15:19:46;;;;;;;4.00;3.15;;;6.80;99.90;;;;;;5014853;28;20213;-79
2023/12/14 15:22:13;;;;;;;4.40;3.00;;;6.80;99.90;;;;;;5014928;28;20233;-77
2023/12/14 15:24:39;;;;;;;3.65;3.30;;;6.70;99.90;;;;;;5014546;28;20266;-77
2023/12/14 15:27:06;;;;;;;3.35;2.97;;;6.70;99.90;;;;;;5014015;28;20214;-77
2023/12/14 15:29:33;;;;;;;3.22;2.88;;;6.70;99.90;;;;;;5014888;28;20218;-77
2023/12/14 15:32:00;;;;;;;5.57;3.20;;;6.60;99.90;;;;;;5014164;28;20226;-77
2023/12/14 15:34:28;;;;;;;4.75;2.75;;;6.60;99.90;;;;;;5013820;28;20202;-77
2023/12/14 15:36:54;;;;;;;9.00;4.15;;;6.60;99.90;;;;;;5014073;28;20202;-77
2023/12/14 15:39:21;;;;;;;8.70;4.25;;;6.60;99.90;;;;;;5013476;28;20209;-77
2023/12/14 15:41:48;;;;;;;6.63;4.15;;;6.60;99.90;;;;;;5014560;28;20222;-77
2023/12/14 15:44:14;;;;;;;6.35;4.35;;;6.60;99.90;;;;;;5014191;28;20218;-80
2023/12/14 15:46:41;;;;;;;7.75;4.65;;;6.60;99.90;;;;;;5014353;28;20582;-76
2023/12/14 15:49:08;;;;;;;4.72;3.90;;;6.60;99.90;;;;;;5013657;28;20314;-77
2023/12/14 15:51:40;;;;;;;4.68;3.63;;;6.50;99.90;;;;;;5013918;28;20230;-77
2023/12/14 15:54:06;;;;;;;6.35;4.05;;;6.60;99.90;;;;;;5013683;28;20211;-77
2023/12/14 15:56:33;;;;;;;4.80;3.30;;;6.50;99.90;;;;;;5012791;28;20213;-76
2023/12/14 15:59:00;;;;;;;5.53;2.65;;;6.50;99.90;;;;;;5013519;28;20202;-76
2023/12/14 16:01:27;;;;;;;5.72;2.70;;;6.50;99.90;;;;;;5013532;28;20268;-76
2023/12/14 16:03:53;;;;;;;8.15;3.00;;;6.40;99.90;;;;;;5013821;28;20214;-76
2023/12/14 16:06:20;;;;;;;3.97;2.38;;;6.40;99.90;;;;;;5008738;28;20202;-77
2023/12/14 16:08:48;;;;;;;5.07;2.55;;;6.40;99.90;;;;;;5012292;28;20687;-77
2023/12/14 16:11:15;;;;;;;3.75;2.63;;;6.50;99.90;;;;;;5012831;28;20238;-78
2023/12/14 16:13:42;;;;;;;5.30;2.95;;;6.40;99.90;;;;;;5012997;28;20694;-78
2023/12/14 16:16:09;;;;;;;5.05;3.25;;;6.40;99.90;;;;;;5013142;28;20206;-78
2023/12/14 16:18:36;;;;;;;6.45;3.83;;;6.40;99.90;;;;;;5013351;28;20285;-78
2023/12/14 16:21:03;;;;;;;5.80;4.30;;;6.40;99.90;;;;;;5011762;28;20845;-76
2023/12/14 16:23:31;;;;;;;5.78;3.70;;;6.30;99.90;;;;;;5012722;28;20213;-77
2023/12/14 16:25:59;;;;;;;5.40;3.55;;;6.30;99.90;;;;;;5011581;28;20217;-76
2023/12/14 16:28:26;;;;;;;4.97;3.35;;;6.30;99.90;;;;;;5010752;28;20226;-76
2023/12/14 16:30:53;;;;;;;4.80;3.30;;;6.30;99.90;;;;;;5006777;28;20222;-75
2023/12/14 16:33:19;;;;;;;4.60;3.50;;;6.20;99.90;;;;;;5012425;28;20206;-75
2023/12/14 16:35:46;;;;;;;6.90;4.03;;;6.20;99.90;;;;;;5013503;28;20207;-77
2023/12/14 16:38:13;;;;;;;4.15;2.97;;;6.20;99.90;;;;;;5012028;28;20210;-75
2023/12/14 16:40:39;;;;;;;6.30;4.05;;;6.20;99.90;;;;;;5012042;28;20250;-76
2023/12/14 16:43:07;;;;;;;4.43;3.22;;;6.20;99.90;;;;;;5012260;28;20211;-76
2023/12/14 16:45:34;;;;;;;3.50;3.15;;;6.20;99.90;;;;;;5012184;28;20228;-76
2023/12/14 16:48:01;;;;;;;3.85;2.75;;;6.20;99.90;;;;;;5012104;28;20199;-75
2023/12/14 16:50:28;;;;;;;6.53;2.53;;;6.20;99.90;;;;;;5011628;28;20595;-75
2023/12/14 16:52:55;;;;;;;4.22;2.88;;;6.20;99.90;;;;;;5012516;28;20199;-76
2023/12/14 16:55:22;;;;;;;3.63;2.63;;;6.20;99.90;;;;;;5010168;28;20211;-76
2023/12/14 16:57:48;;;;;;;3.67;2.35;;;6.10;99.90;;;;;;5012001;28;20210;-75
2023/12/14 17:00:17;;;;;;;3.17;2.40;;;6.10;99.90;;;;;;5011904;28;20225;-75
2023/12/14 17:02:44;;;;;;;4.22;3.50;;;6.10;99.90;;;;;;5012414;28;20213;-76
2023/12/14 17:05:10;;;;;;;6.38;4.05;;;6.10;99.90;;;;;;5011959;28;20211;-76
2023/12/14 17:07:37;;;;;;;5.10;3.47;;;6.10;99.90;;;;;;5011103;28;20225;-76
2023/12/14 17:10:05;;;;;;;6.55;4.03;;;6.10;99.90;;;;;;5011972;28;20222;-76
2023/12/14 17:12:31;;;;;;;4.97;3.28;;;6.10;99.90;;;;;;5011376;28;20656;-76